Elitepvpers Trade Finder

Mit dem Elitepvpers Trade Finder kannst du schnell Treasures finden, die du suchst, oder deine Treasure für andere sichtbarer machen!
Diese Seite befindet sich noch im aufbau also wundert euch nicht falls ihr öfters mal "404 Not Found"-Fehler bekommt. Ich werde diese Seite noch erweitern.


Profil von Infinity-Hosting

Benutzername: Infinity-Hosting
e*gold: 165
Posts: 3391
Thanks: 264
TBM: 150/1/0
E*Gold senden Nachricht senden

Treasures zum Verkauf

TitelPreisErstellungsdatumKäuferLink
5€ Amazon Gutschein (Mit Beleg) 500 22.11.15 - 21:40 Ranodrol #312235
10€ Amazon Gutschein (Mit Beleg) 1000 20.11.15 - 19:00 αк|gσєѕ|ℓν #311947
10€ Amazon Gutschein (Mit Beleg) 1000 19.11.15 - 19:32 LX' #311889
10€ Amazon Gutschein (Mit Beleg) 1000 12.11.15 - 20:05 Madox :) #310981
10€ Amazon Gutschein (Mit Beleg) 950 12.11.15 - 17:52 LX' #310941
5€ Amazon Gutschein (Mit Beleg) 450 03.11.15 - 22:04 peterpan009 #310143
10€ Amazon Gutschein (Mit Beleg) 900 03.11.15 - 22:00 peterpan009 #310141
10€ Amazon Gutschein (Mit Beleg) 900 03.11.15 - 21:59 peterpan009 #310139
25€ Amazon Gutschein (Mit Beleg) 2250 03.11.15 - 21:59 peterpan009 #310138
10€ Amazon Gutschein (Mit Beleg) 900 30.10.15 - 17:01 lulu297 #309746
5€ Amazon Gutschein (Mit Beleg) 450 28.10.15 - 11:13 kleiner Eisbär #309555
10€ Paysafecard (Mit Beleg) 950 27.10.15 - 22:16 ŴOLF #309532
10€ Paysafecard (Mit Beleg) 950 27.10.15 - 22:15 C0kkie #309531
5€ Amazon Gutschein (Mit Beleg) 450 27.10.15 - 15:59 kleiner Eisbär #309496
10€ Amazon Gutschein (Mit Beleg) 900 19.10.15 - 21:51 TiteQ #308796
5€ Amazon Gutschein (Mit Beleg) 450 19.10.15 - 19:05 TiteQ #308773
10€ Amazon Gutschein (Mit Beleg) 900 17.10.15 - 15:03 xCyburn #308527
10€ Amazon Gutschein (Mit Beleg) 900 13.10.15 - 21:54 Swisswatcher #308057
10€ Amazon Gutschein (Mit Beleg) 900 08.10.15 - 20:19 Swisswatcher #307598
5€ Amazon Gutschein (Mit Beleg) 450 27.09.15 - 19:44 Venessen #306521
10€ Amazon Gutschein (Mit Beleg) 900 27.09.15 - 19:41 Venessen #306520
10€ Amazon Gutschein (Mit Beleg) 900 27.09.15 - 19:40 Venessen #306519
5€ Amazon Gutschein (Mit Beleg) 450 23.09.15 - 17:29 Swisswatcher #306130
5€ Amazon gutschein (Mit Beleg)5 450 23.09.15 - 00:22 Swisswatcher #306101
10€ Amazon Gutschein (Mit Beleg) 900 22.09.15 - 18:05 Swisswatcher #306043
10€ Amazon gutschein (Mit Beleg) 900 19.09.15 - 23:10 Swisswatcher #305772
5€ Amazon Gutschein (Mit Beleg) 450 18.09.15 - 01:18 Ranodrol #305596
10€ Amazon Gutschein (Mit Beleg) 900 18.09.15 - 01:18 Lyrobe #305594
10€ Amazon Gutschein (Mit Beleg) 900 18.09.15 - 01:18 Ranodrol #305593
5€ Amazon Gutschein 425 12.09.15 - 02:55 Swisswatcher #304924
10€ Amazon Gutschein 850 12.09.15 - 02:55 Swisswatcher #304923
5€ Amazon Gutschein 425 10.09.15 - 22:03 Swisswatcher #304829
5€ Amazon Gutschein 425 10.09.15 - 20:41 Swisswatcher #304819
10€ Amazon Gutschein 850 10.09.15 - 20:41 Swisswatcher #304818
10€ Amazon Gutschein 850 10.09.15 - 20:41 Swisswatcher #304817
5€ Amazon Gutschein 400 01.09.15 - 17:05 HacK2LivEHD #303751
10€ Amazon Gutschein 800 27.08.15 - 23:36 Swisswatcher #303305
5€ Amazon Gutschein 400 27.08.15 - 23:35 Swisswatcher #303304
10€ Amazon Gutschein 800 25.08.15 - 17:10 Swisswatcher #303095
10€ Amazon Gutschein 800 23.08.15 - 15:54 Refrez #302837
5€ Amazon Gutschein 400 21.08.15 - 23:51 Swisswatcher #302664
25€ Amazon Gutschein 2000 21.08.15 - 23:51 Swisswatcher #302663
25€ Amazon Gutschein 2000 21.08.15 - 23:51 Swisswatcher #302662
5€ Amazon Gutschein 400 19.08.15 - 06:17 Swisswatcher #302416
25€ Amazon Gutschein 2000 19.08.15 - 06:16 Swisswatcher #302414
10€ Amazon 800 16.08.15 - 19:23 Dav؜e #302181
10€ PaySafeCard 850 14.08.15 - 22:26 cashfabrik #301924
4GB Server Windows 30 Tage 800 14.08.15 - 07:29 n/a #301742
2GB Server Windows 30 Tage 450 14.08.15 - 07:28 n/a #301741
1GB Server Windows 30 Tage 300 14.08.15 - 07:27 n/a #301740
10€ Amazon 800 14.08.15 - 03:40 wow.express #301736
5€ Amazon 400 14.08.15 - 02:09 wow.express #301730
10€ Amazon 800 14.08.15 - 02:08 Swisswatcher #301729
5€ Amazon 400 09.08.15 - 04:11 xMenex #300994
5€ Amazon 400 09.08.15 - 04:11 Kirito' #300992
10€ Amazon 800 09.08.15 - 04:06 xMenex #300990
5€ MYPSC PIN 335 08.08.15 - 03:30 susupermario #300814
5€ Amazon 400 06.08.15 - 23:39 [Cyberos] #300696
5€ Amazon 400 06.08.15 - 23:38 [Cyberos] #300695
10€ Amazon 800 06.08.15 - 00:05 Ᏸabe #300608
5€ Amazon 400 06.08.15 - 00:05 Ᏸabe #300607
25€ Amazon 2000 05.08.15 - 17:45 Mariappa #300546
10€ Amazon 800 05.08.15 - 17:44 EntertainmentXYZ #300545
10€ Amazon 800 05.08.15 - 17:43 Tyrariox #300544
10€ PaySafeCard 750 19.07.15 - 22:53 darnkow #299186
10€ PaySafeCard 720 13.07.15 - 13:36 AitIxHD #298543
10€ PaySafeCard 720 13.07.15 - 13:36 SCHN0X #298542
10€ PSC 700 07.07.15 - 18:51 Temphis #297980
10€ Paysafecard 700 17.06.15 - 05:52 Babylon* #295416
5Tage Server 50 Egold 50 13.06.15 - 18:57 Dominikchaos #295043
10€ PSC 750 08.06.15 - 16:03 §¼Paragraph§ #294466
54850

Gekaufte Treasures

TitelPreisErstellungsdatumVerkäuferLink
Advertisment Key #25-1051795384 25 01.09.16 - 06:22 Serraniel #330713
Advertisment Key #5-1468318628 5 31.08.16 - 01:25 Serraniel #330654
Uploaded Account 2 Wochen / 2 Weeks 350 14.03.16 - 16:37 .QaDusch #322047
10€ Amazon Gutscheincode 1250 06.01.16 - 13:52 Mad0ck #316103
5€ Amazon Gutschein 1. hand psc store 750 05.01.16 - 22:15 Kintaro' #316069
Netflix 40 06.11.15 - 22:40 ŴOLF #310455
10€ PSC -> Erstattung nur mit Videobeweis 820 29.09.15 - 20:00 Venessen #306730
25€ PSC -> Erstattung nur mit Videobeweis 2050 29.09.15 - 20:00 Venessen #306729
10€ PSC -> Erstattung nur mit Videobeweis 750 21.09.15 - 20:11 Venessen #305932
10 Euro & 2,55 PSC -> 950 e*gold 950 19.09.15 - 22:51 Doofkeks #305771
5,01€ PSC 380 10.09.15 - 20:43 Careless! #304820
10€ PaySafeCard (OFF + DE / 2. Hand) 700 24.08.15 - 19:29 Spegeli #303004
10€ PSC 2.hand zum direkt einlösen :) 700 23.08.15 - 13:03 NeyRoMe™ #302826
10€PSC 700 21.08.15 - 11:55 K.A.I.R.A #302612
5,84€ PSC DE,OFF 374 10.08.15 - 04:50 schokox34 #301145
Blau.de 15€ Guthaben - Aufladecode 595 09.08.15 - 04:11 cashfabrik #300993
10€ de + offline 750 05.08.15 - 23:50 Zentu. #300604
Custom Programm(Support extra zu zahlen)[Splash]] 500 15.07.15 - 02:24 c0w #298706
uploaded.to 72h 35 06.07.15 - 13:44 LasTFuTuRE #297850
M2bob 20 Tage Key 540 11.06.15 - 19:16 .SoZiaL™ #294811
12264

© 2018 EpvpTrades.de.Kontakt

Eine Seite für www.elitepvpers.com